SBPV/PVH METAR and TAF weather

Enter ICAO airport designator
Station Type Date Time Source
SBPV METAR 2021/08/02 01:00 UTC NOAA

SBPV 020100Z 00000KT CAVOK 24/17 Q1017


Station Type Date Time Source
SBPV Decoded METAR 2021/08/02 01:00 UTC NOAA

Porto Velho Aeroporto , Brazil (SBPV) 08-46S 063-55W 102M
Aug 01, 2021 - 09:00 PM EDT / 2021.08.02 0100 UTC
Wind: Calm:0
Visibility: greater than 7 mile(s):0
Temperature: 75 F (24 C)
Dew Point: 62 F (17 C)
Relative Humidity: 64%
Pressure (altimeter): 30.03 in. Hg (1017 hPa)
ob: SBPV 020100Z 00000KT CAVOK 24/17 Q1017
cycle: 1

Station Type Date Time Source
SBPV TAF 2021/08/01 18:57 UTC NOAA

TAF SBPV 011500Z 0118/0218 17010KT CAVOK TN20/0209Z TX35/0218Z
BECMG 0122/0123 21007KT
BECMG 0206/0208 18007KT 8000 NSC
BECMG 0212/0214 16015KT 9999 FEW030
BECMG 0216/0218 13010KT
RMK PGB

Example: see airport list